UKLU/UDJ METAR and TAF weather

Enter ICAO airport designator
Station Type Date Time Source
UKLU METAR 2021/01/27 13:00 UTC NOAA

UKLU 271300Z 27002MPS 9999 -SN OVC026 00/M03 Q1012 NOSIG


Station Type Date Time Source
UKLU Decoded METAR 2021/01/27 13:00 UTC NOAA

Uzhhorod, Ukraine (UKLU) 48-38-05N 022-15-53E
Jan 27, 2021 - 08:00 AM EST / 2021.01.27 1300 UTC
Wind: from the W (270 degrees) at 4 MPH (4 KT):0
Visibility: greater than 7 mile(s):0
Sky conditions: overcast
Weather: light snow
Temperature: 32 F (0 C)
Dew Point: 26 F (-3 C)
Relative Humidity: 80%
Pressure (altimeter): 29.88 in. Hg (1012 hPa)
ob: UKLU 271300Z 27002MPS 9999 -SN OVC026 00/M03 Q1012 NOSIG
cycle: 13

Station Type Date Time Source
UKLU TAF 2020/10/05 06:21 UTC NOAA

TAF TAF UKLU 050505Z 0506/0518 VRB01MPS 9999 SCT040
TEMPO 0506/0512 14005G10MPS SCT030CB

Example: see airport list